sensor_id;sensor_type;location;lat;lon;timestamp;pressure;altitude;pressure_sealevel;temperature;humidity
61014;BME280;46899;47.542;19.082;2022-09-21T00:00:33;100814.13;;;8.84;100.00
61014;BME280;46899;47.542;19.082;2022-09-21T00:03:36;100815.75;;;8.88;100.00
61014;BME280;46899;47.542;19.082;2022-09-21T00:06:38;100818.41;;;8.86;100.00
61014;BME280;46899;47.542;19.082;2022-09-21T00:09:41;100825.22;;;8.92;100.00
61014;BME280;46899;47.542;19.082;2022-09-21T00:12:43;100814.03;;;8.88;100.00
61014;BME280;46899;47.542;19.082;2022-09-21T00:15:46;100817.53;;;8.87;100.00
61014;BME280;46899;47.542;19.082;2022-09-21T00:18:48;100820.22;;;8.83;100.00
61014;BME280;46899;47.542;19.082;2022-09-21T00:21:54;100822.81;;;8.83;100.00
61014;BME280;46899;47.542;19.082;2022-09-21T00:24:56;100825.97;;;8.97;100.00
61014;BME280;46899;47.542;19.082;2022-09-21T00:27:59;100817.53;;;8.87;100.00
61014;BME280;46899;47.542;19.082;2022-09-21T00:31:06;100816.09;;;8.73;100.00
61014;BME280;46899;47.542;19.082;2022-09-21T00:34:09;100824.59;;;8.79;100.00
61014;BME280;46899;47.542;19.082;2022-09-21T00:37:12;100824.84;;;8.69;100.00
61014;BME280;46899;47.542;19.082;2022-09-21T00:40:14;100830.19;;;8.60;100.00
61014;BME280;46899;47.542;19.082;2022-09-21T00:43:17;100820.66;;;8.62;100.00
61014;BME280;46899;47.542;19.082;2022-09-21T00:49:22;100824.34;;;8.49;100.00
61014;BME280;46899;47.542;19.082;2022-09-21T00:52:26;100824.16;;;8.58;100.00
61014;BME280;46899;47.542;19.082;2022-09-21T00:58:33;100836.44;;;8.50;100.00
61014;BME280;46899;47.542;19.082;2022-09-21T01:01:38;100839.91;;;8.49;100.00
61014;BME280;46899;47.542;19.082;2022-09-21T01:04:40;100845.81;;;8.55;100.00
61014;BME280;46899;47.542;19.082;2022-09-21T01:07:44;100839.69;;;8.61;100.00
61014;BME280;46899;47.542;19.082;2022-09-21T01:30:06;100827.25;;;8.78;100.00
61014;BME280;46899;47.542;19.082;2022-09-21T01:33:12;100831.59;;;8.76;100.00
61014;BME280;46899;47.542;19.082;2022-09-21T01:36:17;100832.44;;;8.76;100.00
61014;BME280;46899;47.542;19.082;2022-09-21T01:39:21;100835.03;;;8.76;100.00
61014;BME280;46899;47.542;19.082;2022-09-21T01:42:25;100835.06;;;8.75;100.00
61014;BME280;46899;47.542;19.082;2022-09-21T01:45:32;100842.91;;;8.72;100.00
61014;BME280;46899;47.542;19.082;2022-09-21T01:48:37;100840.25;;;8.75;100.00
61014;BME280;46899;47.542;19.082;2022-09-21T01:51:47;100837.81;;;8.69;100.00
61014;BME280;46899;47.542;19.082;2022-09-21T01:54:53;100846.50;;;8.66;100.00
61014;BME280;46899;47.542;19.082;2022-09-21T01:58:01;100842.12;;;8.68;100.00
61014;BME280;46899;47.542;19.082;2022-09-21T02:01:07;100844.72;;;8.68;100.00
61014;BME280;46899;47.542;19.082;2022-09-21T02:04:12;100847.31;;;8.67;100.00
61014;BME280;46899;47.542;19.082;2022-09-21T02:07:15;100849.88;;;8.70;100.00
61014;BME280;46899;47.542;19.082;2022-09-21T02:10:23;100850.09;;;8.59;100.00
61014;BME280;46899;47.542;19.082;2022-09-21T02:13:28;100853.59;;;8.57;100.00
61014;BME280;46899;47.542;19.082;2022-09-21T02:16:35;100852.69;;;8.58;100.00
61014;BME280;46899;47.542;19.082;2022-09-21T02:26:06;100863.03;;;8.61;100.00
61014;BME280;46899;47.542;19.082;2022-09-21T02:29:18;100853.59;;;8.57;100.00
61014;BME280;46899;47.542;19.082;2022-09-21T02:35:29;100859.69;;;8.54;100.00
61014;BME280;46899;47.542;19.082;2022-09-21T02:38:51;100859.69;;;8.54;100.00
61014;BME280;46899;47.542;19.082;2022-09-21T02:42:00;100858.97;;;8.48;100.00
61014;BME280;46899;47.542;19.082;2022-09-21T02:45:06;100853.81;;;8.45;100.00
61014;BME280;46899;47.542;19.082;2022-09-21T02:48:12;100864.06;;;8.51;100.00
61014;BME280;46899;47.542;19.082;2022-09-21T02:51:21;100859.47;;;8.66;100.00
61014;BME280;46899;47.542;19.082;2022-09-21T02:54:27;100862.16;;;8.62;100.00
61014;BME280;46899;47.542;19.082;2022-09-21T02:57:30;100869.19;;;8.54;100.00
61014;BME280;46899;47.542;19.082;2022-09-21T03:00:34;100863.19;;;8.50;100.00
61014;BME280;46899;47.542;19.082;2022-09-21T03:03:37;100870.94;;;8.55;100.00
61014;BME280;46899;47.542;19.082;2022-09-21T03:06:39;100869.94;;;8.62;100.00
61014;BME280;46899;47.542;19.082;2022-09-21T03:09:42;100874.44;;;8.51;100.00
61014;BME280;46899;47.542;19.082;2022-09-21T03:12:45;100877.84;;;8.53;100.00
61014;BME280;46899;47.542;19.082;2022-09-21T03:15:47;100879.66;;;8.49;100.00
61014;BME280;46899;47.542;19.082;2022-09-21T03:18:50;100883.12;;;8.50;100.00
61014;BME280;46899;47.542;19.082;2022-09-21T03:21:53;100878.09;;;8.41;100.00
61014;BME280;46899;47.542;19.082;2022-09-21T03:24:56;100891.09;;;8.38;100.00
61014;BME280;46899;47.542;19.082;2022-09-21T03:27:58;100884.19;;;8.38;100.00
61014;BME280;46899;47.542;19.082;2022-09-21T03:31:01;100882.50;;;8.34;100.00
61014;BME280;46899;47.542;19.082;2022-09-21T03:34:03;100886.91;;;8.31;100.00
61014;BME280;46899;47.542;19.082;2022-09-21T03:37:07;100897.38;;;8.23;100.00
61014;BME280;46899;47.542;19.082;2022-09-21T03:40:10;100894.78;;;8.23;100.00
61014;BME280;46899;47.542;19.082;2022-09-21T03:43:14;100892.16;;;8.24;100.00
61014;BME280;46899;47.542;19.082;2022-09-21T03:46:16;100892.16;;;8.24;100.00
61014;BME280;46899;47.542;19.082;2022-09-21T03:49:19;100896.50;;;8.24;100.00
61014;BME280;46899;47.542;19.082;2022-09-21T03:52:22;100895.72;;;8.19;100.00
61014;BME280;46899;47.542;19.082;2022-09-21T03:55:25;100898.22;;;8.23;100.00
61014;BME280;46899;47.542;19.082;2022-09-21T03:58:27;100905.19;;;8.21;100.00
61014;BME280;46899;47.542;19.082;2022-09-21T04:01:30;100908.72;;;8.16;100.00
61014;BME280;46899;47.542;19.082;2022-09-21T04:04:32;100902.63;;;8.18;100.00
61014;BME280;46899;47.542;19.082;2022-09-21T04:07:35;100907.06;;;8.12;100.00
61014;BME280;46899;47.542;19.082;2022-09-21T04:10:38;100911.44;;;8.08;100.00
61014;BME280;46899;47.542;19.082;2022-09-21T04:13:43;100906.12;;;8.16;100.00
61014;BME280;46899;47.542;19.082;2022-09-21T04:16:50;100906.16;;;8.13;100.00
61014;BME280;46899;47.542;19.082;2022-09-21T04:19:53;100897.56;;;8.12;100.00
61014;BME280;46899;47.542;19.082;2022-09-21T04:22:55;100900.91;;;8.19;100.00
61014;BME280;46899;47.542;19.082;2022-09-21T04:25:58;100905.19;;;8.20;100.00
61014;BME280;46899;47.542;19.082;2022-09-21T04:29:01;100905.13;;;8.26;100.00
61014;BME280;46899;47.542;19.082;2022-09-21T04:32:03;100911.09;;;8.30;100.00
61014;BME280;46899;47.542;19.082;2022-09-21T04:35:07;100913.78;;;8.22;100.00
61014;BME280;46899;47.542;19.082;2022-09-21T04:38:09;100917.31;;;8.18;100.00
61014;BME280;46899;47.542;19.082;2022-09-21T04:41:12;100920.00;;;8.13;100.00
61014;BME280;46899;47.542;19.082;2022-09-21T04:44:15;100932.00;;;8.17;100.00
61014;BME280;46899;47.542;19.082;2022-09-21T04:47:17;100932.16;;;8.08;100.00
61014;BME280;46899;47.542;19.082;2022-09-21T04:50:20;100929.66;;;8.04;100.00
61014;BME280;46899;47.542;19.082;2022-09-21T04:53:23;100938.31;;;8.03;100.00
61014;BME280;46899;47.542;19.082;2022-09-21T04:56:25;100935.66;;;8.06;100.00
61014;BME280;46899;47.542;19.082;2022-09-21T04:59:28;100939.28;;;7.94;100.00
61014;BME280;46899;47.542;19.082;2022-09-21T05:02:30;100938.37;;;7.97;100.00
61014;BME280;46899;47.542;19.082;2022-09-21T05:05:32;100937.41;;;8.04;100.00
61014;BME280;46899;47.542;19.082;2022-09-21T05:08:35;100936.44;;;8.11;100.00
61014;BME280;46899;47.542;19.082;2022-09-21T05:11:56;100935.37;;;8.22;100.00
61014;BME280;46899;47.542;19.082;2022-09-21T05:14:59;100937.75;;;8.39;100.00
61014;BME280;46899;47.542;19.082;2022-09-21T05:18:02;100941.94;;;8.46;100.00
61014;BME280;46899;47.542;19.082;2022-09-21T05:21:04;100953.16;;;8.48;100.00
61014;BME280;46899;47.542;19.082;2022-09-21T05:24:07;100944.34;;;8.58;100.00
61014;BME280;46899;47.542;19.082;2022-09-21T05:27:10;100947.78;;;8.59;100.00
61014;BME280;46899;47.542;19.082;2022-09-21T05:30:13;100951.28;;;8.56;100.00
61014;BME280;46899;47.542;19.082;2022-09-21T05:33:15;100950.09;;;8.74;100.00
61014;BME280;46899;47.542;19.082;2022-09-21T05:39:22;100952.16;;;9.03;100.00
61014;BME280;46899;47.542;19.082;2022-09-21T05:42:25;100951.87;;;9.16;100.00
61014;BME280;46899;47.542;19.082;2022-09-21T05:45:28;100953.03;;;9.44;100.00
61014;BME280;46899;47.542;19.082;2022-09-21T05:48:40;100949.37;;;9.56;100.00
61014;BME280;46899;47.542;19.082;2022-09-21T05:58:30;100954.94;;;9.78;100.00
61014;BME280;46899;47.542;19.082;2022-09-21T06:04:39;100959.13;;;12.36;83.04
61014;BME280;46899;47.542;19.082;2022-09-21T06:07:42;100966.25;;;11.47;87.76
61014;BME280;46899;47.542;19.082;2022-09-21T06:10:44;100969.72;;;10.84;93.58
61014;BME280;46899;47.542;19.082;2022-09-21T06:13:47;100975.56;;;10.59;95.38
61014;BME280;46899;47.542;19.082;2022-09-21T06:16:50;100966.41;;;11.10;92.87
61014;BME280;46899;47.542;19.082;2022-09-21T06:19:53;100974.78;;;12.63;83.49
61014;BME280;46899;47.542;19.082;2022-09-21T06:22:59;100966.97;;;12.10;84.95
61014;BME280;46899;47.542;19.082;2022-09-21T06:26:02;100974.34;;;11.36;89.91
61014;BME280;46899;47.542;19.082;2022-09-21T06:29:04;100980.34;;;11.08;92.84
61014;BME280;46899;47.542;19.082;2022-09-21T06:32:07;100982.87;;;11.11;92.31
61014;BME280;46899;47.542;19.082;2022-09-21T06:35:09;100979.00;;;10.93;93.76
61014;BME280;46899;47.542;19.082;2022-09-21T06:38:11;100984.31;;;10.90;95.75
61014;BME280;46899;47.542;19.082;2022-09-21T06:41:14;100983.72;;;11.74;88.25
61014;BME280;46899;47.542;19.082;2022-09-21T06:44:22;100983.75;;;11.42;90.47
61014;BME280;46899;47.542;19.082;2022-09-21T06:47:24;100985.66;;;11.68;88.81
61014;BME280;46899;47.542;19.082;2022-09-21T06:50:27;100994.44;;;11.33;90.39
61014;BME280;46899;47.542;19.082;2022-09-21T06:53:30;100984.50;;;11.15;93.11
61014;BME280;46899;47.542;19.082;2022-09-21T06:56:33;100981.22;;;11.08;93.10
61014;BME280;46899;47.542;19.082;2022-09-21T06:59:37;100986.56;;;11.04;94.80
61014;BME280;46899;47.542;19.082;2022-09-21T07:02:44;100988.09;;;11.11;94.65
61014;BME280;46899;47.542;19.082;2022-09-21T07:05:47;100986.91;;;11.22;93.57
61014;BME280;46899;47.542;19.082;2022-09-21T07:08:51;100991.94;;;11.28;94.18
61014;BME280;46899;47.542;19.082;2022-09-21T07:12:15;100989.31;;;11.59;92.39
61014;BME280;46899;47.542;19.082;2022-09-21T07:15:17;100989.66;;;11.78;90.63
61014;BME280;46899;47.542;19.082;2022-09-21T07:18:21;100989.16;;;11.94;89.09
61014;BME280;46899;47.542;19.082;2022-09-21T07:21:23;100989.87;;;11.99;88.40
61014;BME280;46899;47.542;19.082;2022-09-21T07:24:26;100991.03;;;12.18;87.70
61014;BME280;46899;47.542;19.082;2022-09-21T07:27:29;100996.87;;;12.79;83.93
61014;BME280;46899;47.542;19.082;2022-09-21T07:30:32;101000.50;;;13.26;81.40
61014;BME280;46899;47.542;19.082;2022-09-21T07:33:35;101009.91;;;13.05;81.40
61014;BME280;46899;47.542;19.082;2022-09-21T07:36:38;101003.91;;;12.77;82.65
61014;BME280;46899;47.542;19.082;2022-09-21T07:39:41;101005.06;;;12.68;82.58
61014;BME280;46899;47.542;19.082;2022-09-21T07:42:43;100996.59;;;12.62;83.80
61014;BME280;46899;47.542;19.082;2022-09-21T07:45:52;101004.22;;;12.68;84.59
61014;BME280;46899;47.542;19.082;2022-09-21T07:48:58;100997.94;;;12.73;83.26
61014;BME280;46899;47.542;19.082;2022-09-21T07:52:01;101011.03;;;12.72;84.29
61014;BME280;46899;47.542;19.082;2022-09-21T07:55:08;101006.00;;;13.18;81.38
61014;BME280;46899;47.542;19.082;2022-09-21T07:58:11;101001.22;;;13.04;81.95
61014;BME280;46899;47.542;19.082;2022-09-21T08:01:41;100999.78;;;12.96;83.44
61014;BME280;46899;47.542;19.082;2022-09-21T08:04:43;100996.59;;;13.13;81.70
61014;BME280;46899;47.542;19.082;2022-09-21T08:07:46;101006.53;;;13.28;80.68
61014;BME280;46899;47.542;19.082;2022-09-21T08:10:49;100999.25;;;13.36;80.70
61014;BME280;46899;47.542;19.082;2022-09-21T08:13:55;101004.81;;;13.51;80.23
61014;BME280;46899;47.542;19.082;2022-09-21T08:16:59;101001.38;;;13.96;78.79
61014;BME280;46899;47.542;19.082;2022-09-21T08:20:02;100998.09;;;14.12;76.27
61014;BME280;46899;47.542;19.082;2022-09-21T08:23:05;101006.00;;;14.11;77.02
61014;BME280;46899;47.542;19.082;2022-09-21T08:26:10;101001.84;;;14.50;74.21
61014;BME280;46899;47.542;19.082;2022-09-21T08:29:18;100999.66;;;15.01;72.07
61014;BME280;46899;47.542;19.082;2022-09-21T08:32:21;100997.19;;;15.19;69.74
61014;BME280;46899;47.542;19.082;2022-09-21T08:35:51;101003.53;;;15.13;70.73
61014;BME280;46899;47.542;19.082;2022-09-21T08:38:54;101000.97;;;15.12;70.89
61014;BME280;46899;47.542;19.082;2022-09-21T08:42:18;101005.00;;;15.00;70.97
61014;BME280;46899;47.542;19.082;2022-09-21T08:45:29;101005.50;;;14.88;71.94
61014;BME280;46899;47.542;19.082;2022-09-21T08:48:35;101008.56;;;14.77;71.82
61014;BME280;46899;47.542;19.082;2022-09-21T08:51:44;100998.78;;;14.61;72.01
61014;BME280;46899;47.542;19.082;2022-09-21T08:57:54;101001.78;;;14.52;73.74
61014;BME280;46899;47.542;19.082;2022-09-21T09:17:31;101007.13;;;14.27;73.30
61014;BME280;46899;47.542;19.082;2022-09-21T09:20:39;101010.13;;;14.39;74.68
61014;BME280;46899;47.542;19.082;2022-09-21T09:23:46;101003.81;;;14.65;73.58
61014;BME280;46899;47.542;19.082;2022-09-21T09:26:55;100999.50;;;14.64;71.43
61014;BME280;46899;47.542;19.082;2022-09-21T09:33:30;101003.50;;;14.53;71.11
61014;BME280;46899;47.542;19.082;2022-09-21T09:36:38;101003.50;;;14.73;71.35
61014;BME280;46899;47.542;19.082;2022-09-21T09:39:59;101009.81;;;14.89;71.80
61014;BME280;46899;47.542;19.082;2022-09-21T09:43:04;101002.16;;;15.04;70.44
61014;BME280;46899;47.542;19.082;2022-09-21T09:52:30;100992.84;;;15.18;69.60
61014;BME280;46899;47.542;19.082;2022-09-21T09:55:43;100993.88;;;15.34;69.73
61014;BME280;46899;47.542;19.082;2022-09-21T09:58:55;100996.91;;;15.45;68.81
61014;BME280;46899;47.542;19.082;2022-09-21T10:02:03;100986.78;;;15.56;68.50
61014;BME280;46899;47.542;19.082;2022-09-21T10:05:17;100982.63;;;15.89;67.79
61014;BME280;46899;47.542;19.082;2022-09-21T10:11:35;100983.66;;;16.39;64.78
61014;BME280;46899;47.542;19.082;2022-09-21T10:14:39;100985.47;;;16.39;62.45
61014;BME280;46899;47.542;19.082;2022-09-21T10:17:56;100978.72;;;16.33;63.26
61014;BME280;46899;47.542;19.082;2022-09-21T10:21:00;100974.78;;;16.42;62.66
61014;BME280;46899;47.542;19.082;2022-09-21T10:27:13;100972.59;;;16.52;62.06
61014;BME280;46899;47.542;19.082;2022-09-21T10:33:28;100972.44;;;16.89;60.19
61014;BME280;46899;47.542;19.082;2022-09-21T10:36:33;100970.22;;;16.81;59.80
61014;BME280;46899;47.542;19.082;2022-09-21T10:39:37;100962.69;;;17.08;60.46
61014;BME280;46899;47.542;19.082;2022-09-21T10:42:48;100967.59;;;17.31;60.13
61014;BME280;46899;47.542;19.082;2022-09-21T10:45:51;100963.63;;;17.88;57.61
61014;BME280;46899;47.542;19.082;2022-09-21T10:48:55;100960.59;;;18.57;55.74
61014;BME280;46899;47.542;19.082;2022-09-21T10:51:58;100952.72;;;18.25;53.72
61014;BME280;46899;47.542;19.082;2022-09-21T10:55:02;100957.53;;;17.72;52.70
61014;BME280;46899;47.542;19.082;2022-09-21T10:58:12;100964.31;;;17.60;54.25
61014;BME280;46899;47.542;19.082;2022-09-21T11:01:22;100965.41;;;17.88;53.64
61014;BME280;46899;47.542;19.082;2022-09-21T11:05:08;100958.31;;;17.90;52.67
61014;BME280;46899;47.542;19.082;2022-09-21T11:08:10;100961.91;;;17.56;51.85
61014;BME280;46899;47.542;19.082;2022-09-21T11:24:17;100955.22;;;17.33;53.25
61014;BME280;46899;47.542;19.082;2022-09-21T11:34:04;100941.16;;;17.17;54.51
61014;BME280;46899;47.542;19.082;2022-09-21T11:40:39;100926.19;;;18.44;49.76
61014;BME280;46899;47.542;19.082;2022-09-21T11:47:29;100923.09;;;18.67;47.70
61014;BME280;46899;47.542;19.082;2022-09-21T11:51:19;100928.16;;;18.70;47.49
61014;BME280;46899;47.542;19.082;2022-09-21T11:54:15;100928.75;;;18.89;46.65
61014;BME280;46899;47.542;19.082;2022-09-21T11:57:44;100920.56;;;18.80;46.07
61014;BME280;46899;47.542;19.082;2022-09-21T12:10:51;100893.75;;;18.28;47.82
61014;BME280;46899;47.542;19.082;2022-09-21T12:17:15;100903.22;;;18.16;46.95
61014;BME280;46899;47.542;19.082;2022-09-21T12:23:48;100883.78;;;18.33;47.16
61014;BME280;46899;47.542;19.082;2022-09-21T12:26:54;100876.59;;;18.94;45.91
61014;BME280;46899;47.542;19.082;2022-09-21T12:30:03;100880.00;;;19.39;46.77
61014;BME280;46899;47.542;19.082;2022-09-21T12:33:13;100886.03;;;19.41;45.75
61014;BME280;46899;47.542;19.082;2022-09-21T12:36:19;100885.53;;;18.92;47.62
61014;BME280;46899;47.542;19.082;2022-09-21T12:39:31;100891.19;;;17.81;50.81
61014;BME280;46899;47.542;19.082;2022-09-21T12:42:48;100888.63;;;17.48;51.23
61014;BME280;46899;47.542;19.082;2022-09-21T12:45:54;100898.25;;;17.17;50.78
61014;BME280;46899;47.542;19.082;2022-09-21T12:48:59;100894.09;;;17.76;48.48
61014;BME280;46899;47.542;19.082;2022-09-21T12:52:02;100892.88;;;17.98;49.12
61014;BME280;46899;47.542;19.082;2022-09-21T12:55:20;100896.78;;;17.91;49.77
61014;BME280;46899;47.542;19.082;2022-09-21T13:05:12;100885.94;;;17.65;51.07
61014;BME280;46899;47.542;19.082;2022-09-21T13:08:31;100887.47;;;17.69;49.99
61014;BME280;46899;47.542;19.082;2022-09-21T13:11:48;100889.22;;;17.38;51.65
61014;BME280;46899;47.542;19.082;2022-09-21T13:14:53;100872.97;;;17.45;51.62
61014;BME280;46899;47.542;19.082;2022-09-21T13:21:13;100866.09;;;17.27;51.47
61014;BME280;46899;47.542;19.082;2022-09-21T13:24:24;100863.25;;;17.47;51.18
61014;BME280;46899;47.542;19.082;2022-09-21T13:37:30;100861.34;;;17.34;50.74
61014;BME280;46899;47.542;19.082;2022-09-21T13:40:33;100857.03;;;17.48;52.00
61014;BME280;46899;47.542;19.082;2022-09-21T13:43:47;100858.09;;;17.61;51.40
61014;BME280;46899;47.542;19.082;2022-09-21T13:46:51;100857.66;;;17.69;50.78
61014;BME280;46899;47.542;19.082;2022-09-21T13:49:54;100858.06;;;17.93;51.49
61014;BME280;46899;47.542;19.082;2022-09-21T13:53:02;100848.84;;;18.15;49.95
61014;BME280;46899;47.542;19.082;2022-09-21T13:56:08;100843.25;;;18.35;49.77
61014;BME280;46899;47.542;19.082;2022-09-21T13:59:18;100843.78;;;18.56;48.15
61014;BME280;46899;47.542;19.082;2022-09-21T14:02:32;100847.66;;;18.35;48.76
61014;BME280;46899;47.542;19.082;2022-09-21T14:08:39;100854.56;;;17.45;49.56
61014;BME280;46899;47.542;19.082;2022-09-21T14:11:58;100855.69;;;17.41;48.93
61014;BME280;46899;47.542;19.082;2022-09-21T14:21:18;100857.03;;;17.48;49.26
61014;BME280;46899;47.542;19.082;2022-09-21T14:24:21;100847.63;;;17.44;49.48
61014;BME280;46899;47.542;19.082;2022-09-21T14:27:36;100850.56;;;17.38;50.23
61014;BME280;46899;47.542;19.082;2022-09-21T14:30:48;100855.69;;;17.26;51.07
61014;BME280;46899;47.542;19.082;2022-09-21T14:33:52;100845.47;;;17.20;51.76
61014;BME280;46899;47.542;19.082;2022-09-21T14:36:56;100853.56;;;17.17;50.91
61014;BME280;46899;47.542;19.082;2022-09-21T14:40:02;100852.94;;;17.12;50.68
61014;BME280;46899;47.542;19.082;2022-09-21T14:43:08;100852.84;;;17.13;50.88
61014;BME280;46899;47.542;19.082;2022-09-21T14:46:17;100854.22;;;17.20;50.82
61014;BME280;46899;47.542;19.082;2022-09-21T14:56:01;100847.34;;;17.18;50.00
61014;BME280;46899;47.542;19.082;2022-09-21T14:59:13;100841.59;;;17.42;49.48
61014;BME280;46899;47.542;19.082;2022-09-21T15:02:30;100855.81;;;17.71;48.60
61014;BME280;46899;47.542;19.082;2022-09-21T15:05:39;100858.25;;;17.90;49.12
61014;BME280;46899;47.542;19.082;2022-09-21T15:08:55;100856.41;;;17.60;48.47
61014;BME280;46899;47.542;19.082;2022-09-21T15:12:27;100862.25;;;17.50;48.35
61014;BME280;46899;47.542;19.082;2022-09-21T15:18:46;100856.63;;;16.92;50.60
61014;BME280;46899;47.542;19.082;2022-09-21T15:21:50;100863.09;;;16.69;51.03
61014;BME280;46899;47.542;19.082;2022-09-21T15:24:54;100865.50;;;16.57;50.08
61014;BME280;46899;47.542;19.082;2022-09-21T15:27:57;100861.31;;;16.35;51.39
61014;BME280;46899;47.542;19.082;2022-09-21T15:31:01;100856.19;;;16.32;51.46
61014;BME280;46899;47.542;19.082;2022-09-21T15:34:04;100859.53;;;16.19;51.94
61014;BME280;46899;47.542;19.082;2022-09-21T15:37:11;100860.75;;;16.12;52.25
61014;BME280;46899;47.542;19.082;2022-09-21T15:40:21;100864.37;;;16.09;52.56
61014;BME280;46899;47.542;19.082;2022-09-21T15:43:24;100867.72;;;16.13;53.01
61014;BME280;46899;47.542;19.082;2022-09-21T15:46:27;100868.63;;;16.12;52.77
61014;BME280;46899;47.542;19.082;2022-09-21T15:49:30;100867.47;;;16.17;51.71
61014;BME280;46899;47.542;19.082;2022-09-21T15:52:39;100878.00;;;16.17;52.19
61014;BME280;46899;47.542;19.082;2022-09-21T15:55:47;100874.59;;;16.15;51.83
61014;BME280;46899;47.542;19.082;2022-09-21T15:58:50;100887.09;;;16.10;52.02
61014;BME280;46899;47.542;19.082;2022-09-21T16:01:54;100888.78;;;15.94;51.54
61014;BME280;46899;47.542;19.082;2022-09-21T16:04:59;100889.28;;;15.84;52.40
61014;BME280;46899;47.542;19.082;2022-09-21T16:08:08;100893.97;;;15.77;52.77
61014;BME280;46899;47.542;19.082;2022-09-21T16:14:29;100891.37;;;15.58;52.61
61014;BME280;46899;47.542;19.082;2022-09-21T16:17:54;100893.78;;;15.44;52.90
61014;BME280;46899;47.542;19.082;2022-09-21T16:21:06;100895.28;;;15.30;53.76
61014;BME280;46899;47.542;19.082;2022-09-21T16:24:14;100902.63;;;15.22;54.22
61014;BME280;46899;47.542;19.082;2022-09-21T16:27:18;100895.53;;;15.05;55.74
61014;BME280;46899;47.542;19.082;2022-09-21T16:34:02;100901.78;;;14.82;57.55
61014;BME280;46899;47.542;19.082;2022-09-21T16:40:39;100900.41;;;14.54;60.16
61014;BME280;46899;47.542;19.082;2022-09-21T16:43:42;100913.00;;;14.46;61.41
61014;BME280;46899;47.542;19.082;2022-09-21T16:46:49;100904.69;;;14.36;62.04
61014;BME280;46899;47.542;19.082;2022-09-21T16:49:56;100916.41;;;14.26;63.03
61014;BME280;46899;47.542;19.082;2022-09-21T16:53:01;100913.59;;;14.09;63.72
61014;BME280;46899;47.542;19.082;2022-09-21T16:56:04;100914.47;;;14.09;63.76
61014;BME280;46899;47.542;19.082;2022-09-21T16:59:11;100919.19;;;14.01;64.39
61014;BME280;46899;47.542;19.082;2022-09-21T17:02:15;100923.97;;;13.90;65.18
61014;BME280;46899;47.542;19.082;2022-09-21T17:05:18;100923.34;;;13.84;65.15
61014;BME280;46899;47.542;19.082;2022-09-21T17:08:21;100922.75;;;13.77;65.83
61014;BME280;46899;47.542;19.082;2022-09-21T17:11:25;100928.09;;;13.74;66.36
61014;BME280;46899;47.542;19.082;2022-09-21T17:14:29;100921.50;;;13.64;66.58
61014;BME280;46899;47.542;19.082;2022-09-21T17:17:36;100929.88;;;13.50;67.37
61014;BME280;46899;47.542;19.082;2022-09-21T17:20:39;100932.91;;;13.40;67.79
61014;BME280;46899;47.542;19.082;2022-09-21T17:23:42;100936.34;;;13.40;68.53
61014;BME280;46899;47.542;19.082;2022-09-21T17:26:45;100939.28;;;13.33;68.65
61014;BME280;46899;47.542;19.082;2022-09-21T17:29:48;100939.44;;;13.28;69.23
61014;BME280;46899;47.542;19.082;2022-09-21T17:32:51;100945.72;;;13.23;69.00
61014;BME280;46899;47.542;19.082;2022-09-21T17:35:54;100950.03;;;13.24;68.81
61014;BME280;46899;47.542;19.082;2022-09-21T17:38:57;100958.16;;;13.16;69.36
61014;BME280;46899;47.542;19.082;2022-09-21T17:42:16;100964.47;;;13.11;69.45
61014;BME280;46899;47.542;19.082;2022-09-21T17:48:26;100965.78;;;12.97;69.89
61014;BME280;46899;47.542;19.082;2022-09-21T17:51:35;100965.19;;;12.89;69.38
61014;BME280;46899;47.542;19.082;2022-09-21T17:54:56;100975.87;;;12.82;70.23
61014;BME280;46899;47.542;19.082;2022-09-21T18:04:21;100982.91;;;12.55;71.92
61014;BME280;46899;47.542;19.082;2022-09-21T18:07:23;100983.94;;;12.50;72.63
61014;BME280;46899;47.542;19.082;2022-09-21T18:10:26;100989.41;;;12.42;72.92
61014;BME280;46899;47.542;19.082;2022-09-21T18:16:49;100990.72;;;12.29;74.30
61014;BME280;46899;47.542;19.082;2022-09-21T18:25:59;100994.72;;;12.13;75.87
61014;BME280;46899;47.542;19.082;2022-09-21T18:29:02;101001.97;;;12.03;76.85
61014;BME280;46899;47.542;19.082;2022-09-21T18:32:44;100997.72;;;11.99;76.76
61014;BME280;46899;47.542;19.082;2022-09-21T18:36:10;101002.22;;;11.94;77.60
61014;BME280;46899;47.542;19.082;2022-09-21T18:39:20;100998.84;;;11.91;78.03
61014;BME280;46899;47.542;19.082;2022-09-21T18:45:40;101000.88;;;11.81;79.12
61014;BME280;46899;47.542;19.082;2022-09-21T18:52:36;101003.06;;;11.65;80.06
61014;BME280;46899;47.542;19.082;2022-09-21T18:58:24;101006.37;;;11.72;80.31
61014;BME280;46899;47.542;19.082;2022-09-21T19:01:27;101003.88;;;11.66;80.84
61014;BME280;46899;47.542;19.082;2022-09-21T19:04:34;101004.94;;;11.60;81.74
61014;BME280;46899;47.542;19.082;2022-09-21T19:07:39;101010.50;;;11.48;82.33
61014;BME280;46899;47.542;19.082;2022-09-21T19:10:44;101009.72;;;11.45;82.96
61014;BME280;46899;47.542;19.082;2022-09-21T19:20:40;101005.34;;;11.47;84.25
61014;BME280;46899;47.542;19.082;2022-09-21T19:30:01;101012.38;;;11.43;85.01
61014;BME280;46899;47.542;19.082;2022-09-21T19:33:13;101016.13;;;11.33;85.81
61014;BME280;46899;47.542;19.082;2022-09-21T19:36:38;101010.22;;;11.27;86.23
61014;BME280;46899;47.542;19.082;2022-09-21T19:39:41;101002.53;;;11.22;86.92
61014;BME280;46899;47.542;19.082;2022-09-21T19:43:31;100997.34;;;11.22;87.13